sensor_id;sensor_type;location;lat;lon;timestamp;P1;durP1;ratioP1;P2;durP2;ratioP2
33786;SDS011;29742;51.540;9.358;2022-12-07T00:03:20;0.32;;;0.32;;
33786;SDS011;29742;51.540;9.358;2022-12-07T00:08:21;0.30;;;0.30;;
33786;SDS011;29742;51.540;9.358;2022-12-07T00:13:21;1.05;;;0.43;;
33786;SDS011;29742;51.540;9.358;2022-12-07T00:18:21;0.43;;;0.40;;
33786;SDS011;29742;51.540;9.358;2022-12-07T00:23:21;0.40;;;0.35;;
33786;SDS011;29742;51.540;9.358;2022-12-07T00:28:22;0.82;;;0.30;;
33786;SDS011;29742;51.540;9.358;2022-12-07T00:33:22;1.63;;;0.50;;
33786;SDS011;29742;51.540;9.358;2022-12-07T00:38:23;0.40;;;0.20;;
33786;SDS011;29742;51.540;9.358;2022-12-07T00:43:23;0.38;;;0.30;;
33786;SDS011;29742;51.540;9.358;2022-12-07T00:48:24;0.75;;;0.32;;
33786;SDS011;29742;51.540;9.358;2022-12-07T00:53:25;0.20;;;0.20;;
33786;SDS011;29742;51.540;9.358;2022-12-07T00:58:25;0.50;;;0.30;;
33786;SDS011;29742;51.540;9.358;2022-12-07T01:03:26;0.30;;;0.30;;
33786;SDS011;29742;51.540;9.358;2022-12-07T01:08:26;0.30;;;0.30;;
33786;SDS011;29742;51.540;9.358;2022-12-07T01:13:27;0.50;;;0.40;;
33786;SDS011;29742;51.540;9.358;2022-12-07T01:18:28;0.73;;;0.38;;
33786;SDS011;29742;51.540;9.358;2022-12-07T01:23:30;0.55;;;0.38;;
33786;SDS011;29742;51.540;9.358;2022-12-07T01:28:31;0.47;;;0.47;;
33786;SDS011;29742;51.540;9.358;2022-12-07T01:33:33;0.50;;;0.40;;
33786;SDS011;29742;51.540;9.358;2022-12-07T01:38:34;0.35;;;0.30;;
33786;SDS011;29742;51.540;9.358;2022-12-07T01:43:35;0.37;;;0.23;;
33786;SDS011;29742;51.540;9.358;2022-12-07T01:48:37;0.52;;;0.20;;
33786;SDS011;29742;51.540;9.358;2022-12-07T01:53:41;0.10;;;0.10;;
33786;SDS011;29742;51.540;9.358;2022-12-07T01:58:43;0.47;;;0.47;;
33786;SDS011;29742;51.540;9.358;2022-12-07T02:03:44;0.25;;;0.20;;
33786;SDS011;29742;51.540;9.358;2022-12-07T02:08:45;0.30;;;0.25;;
33786;SDS011;29742;51.540;9.358;2022-12-07T02:13:46;0.50;;;0.25;;
33786;SDS011;29742;51.540;9.358;2022-12-07T02:18:59;0.50;;;0.28;;
33786;SDS011;29742;51.540;9.358;2022-12-07T02:24:27;0.30;;;0.22;;
33786;SDS011;29742;51.540;9.358;2022-12-07T02:29:57;0.30;;;0.30;;
33786;SDS011;29742;51.540;9.358;2022-12-07T02:35:08;0.20;;;0.20;;
33786;SDS011;29742;51.540;9.358;2022-12-07T02:40:18;0.60;;;0.30;;
33786;SDS011;29742;51.540;9.358;2022-12-07T02:45:22;0.20;;;0.20;;
33786;SDS011;29742;51.540;9.358;2022-12-07T02:50:24;0.30;;;0.22;;
33786;SDS011;29742;51.540;9.358;2022-12-07T02:55:27;0.47;;;0.43;;
33786;SDS011;29742;51.540;9.358;2022-12-07T03:00:29;0.65;;;0.40;;
33786;SDS011;29742;51.540;9.358;2022-12-07T03:10:56;1.02;;;0.25;;
33786;SDS011;29742;51.540;9.358;2022-12-07T03:16:02;0.45;;;0.40;;
33786;SDS011;29742;51.540;9.358;2022-12-07T03:21:04;0.45;;;0.40;;
33786;SDS011;29742;51.540;9.358;2022-12-07T03:26:08;0.80;;;0.40;;
33786;SDS011;29742;51.540;9.358;2022-12-07T03:31:32;0.60;;;0.60;;
33786;SDS011;29742;51.540;9.358;2022-12-07T03:36:37;0.25;;;0.15;;
33786;SDS011;29742;51.540;9.358;2022-12-07T03:41:40;0.32;;;0.30;;
33786;SDS011;29742;51.540;9.358;2022-12-07T03:46:44;0.50;;;0.30;;
33786;SDS011;29742;51.540;9.358;2022-12-07T03:57:28;0.60;;;0.32;;
33786;SDS011;29742;51.540;9.358;2022-12-07T04:02:30;0.45;;;0.20;;
33786;SDS011;29742;51.540;9.358;2022-12-07T04:07:30;0.50;;;0.40;;
33786;SDS011;29742;51.540;9.358;2022-12-07T04:12:30;0.28;;;0.20;;
33786;SDS011;29742;51.540;9.358;2022-12-07T04:17:31;0.15;;;0.15;;
33786;SDS011;29742;51.540;9.358;2022-12-07T04:22:31;0.13;;;0.13;;
33786;SDS011;29742;51.540;9.358;2022-12-07T04:27:32;0.30;;;0.30;;
33786;SDS011;29742;51.540;9.358;2022-12-07T04:32:32;0.30;;;0.30;;
33786;SDS011;29742;51.540;9.358;2022-12-07T04:37:32;0.30;;;0.30;;
33786;SDS011;29742;51.540;9.358;2022-12-07T04:42:32;0.20;;;0.20;;
33786;SDS011;29742;51.540;9.358;2022-12-07T04:47:33;0.40;;;0.40;;
33786;SDS011;29742;51.540;9.358;2022-12-07T04:52:33;0.40;;;0.37;;
33786;SDS011;29742;51.540;9.358;2022-12-07T04:57:33;0.38;;;0.30;;
33786;SDS011;29742;51.540;9.358;2022-12-07T05:02:34;0.45;;;0.30;;
33786;SDS011;29742;51.540;9.358;2022-12-07T05:07:34;0.10;;;0.10;;
33786;SDS011;29742;51.540;9.358;2022-12-07T05:12:34;0.23;;;0.13;;
33786;SDS011;29742;51.540;9.358;2022-12-07T05:17:35;0.30;;;0.30;;
33786;SDS011;29742;51.540;9.358;2022-12-07T05:22:35;0.20;;;0.20;;
33786;SDS011;29742;51.540;9.358;2022-12-07T05:27:35;0.52;;;0.32;;
33786;SDS011;29742;51.540;9.358;2022-12-07T05:32:36;0.13;;;0.13;;
33786;SDS011;29742;51.540;9.358;2022-12-07T05:37:36;0.17;;;0.10;;
33786;SDS011;29742;51.540;9.358;2022-12-07T05:42:36;0.47;;;0.30;;
33786;SDS011;29742;51.540;9.358;2022-12-07T05:47:37;0.22;;;0.20;;
33786;SDS011;29742;51.540;9.358;2022-12-07T05:52:37;0.20;;;0.20;;
33786;SDS011;29742;51.540;9.358;2022-12-07T05:57:37;0.10;;;0.10;;
33786;SDS011;29742;51.540;9.358;2022-12-07T06:02:38;0.20;;;0.10;;
33786;SDS011;29742;51.540;9.358;2022-12-07T06:07:38;0.10;;;0.10;;
33786;SDS011;29742;51.540;9.358;2022-12-07T06:12:38;0.10;;;0.10;;
33786;SDS011;29742;51.540;9.358;2022-12-07T06:17:42;0.33;;;0.20;;
33786;SDS011;29742;51.540;9.358;2022-12-07T06:22:42;0.38;;;0.30;;
33786;SDS011;29742;51.540;9.358;2022-12-07T06:27:43;0.35;;;0.20;;
33786;SDS011;29742;51.540;9.358;2022-12-07T06:32:43;0.20;;;0.20;;
33786;SDS011;29742;51.540;9.358;2022-12-07T06:37:43;0.40;;;0.40;;
33786;SDS011;29742;51.540;9.358;2022-12-07T06:42:43;0.10;;;0.10;;
33786;SDS011;29742;51.540;9.358;2022-12-07T06:47:44;0.32;;;0.28;;
33786;SDS011;29742;51.540;9.358;2022-12-07T06:52:44;0.20;;;0.20;;
33786;SDS011;29742;51.540;9.358;2022-12-07T06:57:45;0.10;;;0.10;;
33786;SDS011;29742;51.540;9.358;2022-12-07T07:02:45;0.10;;;0.10;;
33786;SDS011;29742;51.540;9.358;2022-12-07T07:07:45;0.35;;;0.20;;
33786;SDS011;29742;51.540;9.358;2022-12-07T07:12:46;0.20;;;0.17;;
33786;SDS011;29742;51.540;9.358;2022-12-07T07:17:46;0.30;;;0.15;;
33786;SDS011;29742;51.540;9.358;2022-12-07T07:22:47;0.73;;;0.10;;
33786;SDS011;29742;51.540;9.358;2022-12-07T07:27:47;0.77;;;0.10;;
33786;SDS011;29742;51.540;9.358;2022-12-07T07:32:47;0.00;;;0.00;;
33786;SDS011;29742;51.540;9.358;2022-12-07T07:37:48;0.20;;;0.10;;
33786;SDS011;29742;51.540;9.358;2022-12-07T07:42:49;0.28;;;0.20;;
33786;SDS011;29742;51.540;9.358;2022-12-07T07:47:50;0.28;;;0.10;;
33786;SDS011;29742;51.540;9.358;2022-12-07T07:52:51;0.13;;;0.10;;
33786;SDS011;29742;51.540;9.358;2022-12-07T07:57:52;0.10;;;0.10;;
33786;SDS011;29742;51.540;9.358;2022-12-07T08:02:52;0.63;;;0.27;;
33786;SDS011;29742;51.540;9.358;2022-12-07T08:07:52;0.20;;;0.20;;
33786;SDS011;29742;51.540;9.358;2022-12-07T08:12:53;0.13;;;0.10;;
33786;SDS011;29742;51.540;9.358;2022-12-07T08:18:11;0.20;;;0.20;;
33786;SDS011;29742;51.540;9.358;2022-12-07T08:23:12;2.92;;;0.55;;
33786;SDS011;29742;51.540;9.358;2022-12-07T08:28:13;1.58;;;0.70;;
33786;SDS011;29742;51.540;9.358;2022-12-07T08:33:13;1.27;;;0.50;;
33786;SDS011;29742;51.540;9.358;2022-12-07T08:38:13;3.25;;;0.88;;
33786;SDS011;29742;51.540;9.358;2022-12-07T08:43:14;1.43;;;0.40;;
33786;SDS011;29742;51.540;9.358;2022-12-07T08:48:14;2.00;;;0.70;;
33786;SDS011;29742;51.540;9.358;2022-12-07T08:53:17;3.08;;;0.65;;
33786;SDS011;29742;51.540;9.358;2022-12-07T08:58:18;3.10;;;0.73;;
33786;SDS011;29742;51.540;9.358;2022-12-07T09:03:18;0.82;;;0.60;;
33786;SDS011;29742;51.540;9.358;2022-12-07T09:08:18;1.93;;;0.50;;
33786;SDS011;29742;51.540;9.358;2022-12-07T09:13:20;3.05;;;0.60;;
33786;SDS011;29742;51.540;9.358;2022-12-07T09:18:20;2.53;;;0.95;;
33786;SDS011;29742;51.540;9.358;2022-12-07T09:23:20;2.08;;;0.50;;
33786;SDS011;29742;51.540;9.358;2022-12-07T09:28:21;1.83;;;0.75;;
33786;SDS011;29742;51.540;9.358;2022-12-07T09:33:21;1.35;;;0.60;;
33786;SDS011;29742;51.540;9.358;2022-12-07T09:38:21;1.50;;;0.40;;
33786;SDS011;29742;51.540;9.358;2022-12-07T09:43:23;2.60;;;0.50;;
33786;SDS011;29742;51.540;9.358;2022-12-07T09:48:31;0.85;;;0.43;;
33786;SDS011;29742;51.540;9.358;2022-12-07T09:53:33;1.13;;;0.50;;
33786;SDS011;29742;51.540;9.358;2022-12-07T09:58:34;0.90;;;0.45;;
33786;SDS011;29742;51.540;9.358;2022-12-07T10:03:35;0.98;;;0.30;;
33786;SDS011;29742;51.540;9.358;2022-12-07T10:08:36;0.52;;;0.32;;
33786;SDS011;29742;51.540;9.358;2022-12-07T10:13:40;1.05;;;0.50;;
33786;SDS011;29742;51.540;9.358;2022-12-07T10:18:48;1.88;;;0.60;;
33786;SDS011;29742;51.540;9.358;2022-12-07T10:24:05;0.60;;;0.23;;
33786;SDS011;29742;51.540;9.358;2022-12-07T10:29:36;0.52;;;0.40;;
33786;SDS011;29742;51.540;9.358;2022-12-07T10:34:37;4.00;;;1.02;;
33786;SDS011;29742;51.540;9.358;2022-12-07T10:39:53;3.10;;;1.00;;
33786;SDS011;29742;51.540;9.358;2022-12-07T10:50:26;3.07;;;1.10;;
33786;SDS011;29742;51.540;9.358;2022-12-07T11:01:14;2.47;;;0.80;;
33786;SDS011;29742;51.540;9.358;2022-12-07T11:06:36;3.70;;;1.10;;
33786;SDS011;29742;51.540;9.358;2022-12-07T11:11:47;3.58;;;1.08;;
33786;SDS011;29742;51.540;9.358;2022-12-07T11:22:16;1.75;;;0.90;;
33786;SDS011;29742;51.540;9.358;2022-12-07T11:27:48;1.52;;;0.80;;
33786;SDS011;29742;51.540;9.358;2022-12-07T11:33:13;2.83;;;0.80;;
33786;SDS011;29742;51.540;9.358;2022-12-07T11:38:33;2.28;;;0.80;;
33786;SDS011;29742;51.540;9.358;2022-12-07T11:48:53;1.85;;;1.05;;
33786;SDS011;29742;51.540;9.358;2022-12-07T11:53:59;3.17;;;1.00;;
33786;SDS011;29742;51.540;9.358;2022-12-07T12:24:43;1.23;;;0.50;;
33786;SDS011;29742;51.540;9.358;2022-12-07T12:29:45;0.70;;;0.35;;
33786;SDS011;29742;51.540;9.358;2022-12-07T12:55:49;2.08;;;0.70;;
33786;SDS011;29742;51.540;9.358;2022-12-07T13:11:38;0.68;;;0.20;;
33786;SDS011;29742;51.540;9.358;2022-12-07T13:16:41;1.23;;;0.33;;
33786;SDS011;29742;51.540;9.358;2022-12-07T13:21:43;0.30;;;0.10;;
33786;SDS011;29742;51.540;9.358;2022-12-07T13:26:43;0.70;;;0.28;;
33786;SDS011;29742;51.540;9.358;2022-12-07T13:31:45;0.30;;;0.20;;
33786;SDS011;29742;51.540;9.358;2022-12-07T13:36:49;0.75;;;0.10;;
33786;SDS011;29742;51.540;9.358;2022-12-07T13:41:50;0.53;;;0.30;;
33786;SDS011;29742;51.540;9.358;2022-12-07T13:52:27;1.20;;;0.28;;
33786;SDS011;29742;51.540;9.358;2022-12-07T13:57:28;0.95;;;0.20;;
33786;SDS011;29742;51.540;9.358;2022-12-07T14:02:34;0.65;;;0.13;;
33786;SDS011;29742;51.540;9.358;2022-12-07T14:07:35;0.25;;;0.20;;
33786;SDS011;29742;51.540;9.358;2022-12-07T14:12:36;0.35;;;0.20;;
33786;SDS011;29742;51.540;9.358;2022-12-07T14:17:38;0.40;;;0.30;;
33786;SDS011;29742;51.540;9.358;2022-12-07T14:22:54;0.10;;;0.10;;
33786;SDS011;29742;51.540;9.358;2022-12-07T14:27:56;0.40;;;0.20;;
33786;SDS011;29742;51.540;9.358;2022-12-07T14:32:59;0.35;;;0.10;;
33786;SDS011;29742;51.540;9.358;2022-12-07T14:38:01;0.25;;;0.20;;
33786;SDS011;29742;51.540;9.358;2022-12-07T14:43:02;0.83;;;0.33;;
33786;SDS011;29742;51.540;9.358;2022-12-07T14:48:13;0.70;;;0.38;;
33786;SDS011;29742;51.540;9.358;2022-12-07T14:53:18;0.32;;;0.32;;
33786;SDS011;29742;51.540;9.358;2022-12-07T14:58:21;0.00;;;0.00;;
33786;SDS011;29742;51.540;9.358;2022-12-07T15:03:22;0.30;;;0.20;;
33786;SDS011;29742;51.540;9.358;2022-12-07T15:08:22;0.57;;;0.10;;
33786;SDS011;29742;51.540;9.358;2022-12-07T15:13:22;0.20;;;0.10;;
33786;SDS011;29742;51.540;9.358;2022-12-07T15:18:41;0.60;;;0.20;;
33786;SDS011;29742;51.540;9.358;2022-12-07T15:23:42;0.80;;;0.47;;
33786;SDS011;29742;51.540;9.358;2022-12-07T15:28:42;0.20;;;0.20;;
33786;SDS011;29742;51.540;9.358;2022-12-07T15:33:43;0.82;;;0.32;;
33786;SDS011;29742;51.540;9.358;2022-12-07T15:38:43;0.30;;;0.10;;
33786;SDS011;29742;51.540;9.358;2022-12-07T15:43:44;1.37;;;0.10;;
33786;SDS011;29742;51.540;9.358;2022-12-07T15:49:03;0.20;;;0.15;;
33786;SDS011;29742;51.540;9.358;2022-12-07T15:54:06;0.47;;;0.20;;
33786;SDS011;29742;51.540;9.358;2022-12-07T15:59:22;0.30;;;0.10;;
33786;SDS011;29742;51.540;9.358;2022-12-07T16:04:23;0.40;;;0.30;;
33786;SDS011;29742;51.540;9.358;2022-12-07T16:09:23;0.68;;;0.38;;
33786;SDS011;29742;51.540;9.358;2022-12-07T16:14:23;0.20;;;0.10;;
33786;SDS011;29742;51.540;9.358;2022-12-07T16:19:24;0.73;;;0.27;;
33786;SDS011;29742;51.540;9.358;2022-12-07T16:24:24;0.55;;;0.20;;
33786;SDS011;29742;51.540;9.358;2022-12-07T16:29:25;0.68;;;0.25;;
33786;SDS011;29742;51.540;9.358;2022-12-07T16:34:25;0.03;;;0.00;;
33786;SDS011;29742;51.540;9.358;2022-12-07T16:39:25;0.17;;;0.00;;
33786;SDS011;29742;51.540;9.358;2022-12-07T16:44:26;0.20;;;0.10;;
33786;SDS011;29742;51.540;9.358;2022-12-07T16:49:26;0.95;;;0.30;;
33786;SDS011;29742;51.540;9.358;2022-12-07T16:54:26;0.47;;;0.30;;
33786;SDS011;29742;51.540;9.358;2022-12-07T16:59:30;0.35;;;0.10;;
33786;SDS011;29742;51.540;9.358;2022-12-07T17:04:31;1.00;;;0.40;;
33786;SDS011;29742;51.540;9.358;2022-12-07T17:09:36;0.13;;;0.10;;
33786;SDS011;29742;51.540;9.358;2022-12-07T17:14:36;0.30;;;0.20;;
33786;SDS011;29742;51.540;9.358;2022-12-07T17:19:55;0.70;;;0.13;;
33786;SDS011;29742;51.540;9.358;2022-12-07T17:24:56;0.40;;;0.23;;
33786;SDS011;29742;51.540;9.358;2022-12-07T17:29:56;0.17;;;0.10;;
33786;SDS011;29742;51.540;9.358;2022-12-07T17:34:56;0.10;;;0.10;;
33786;SDS011;29742;51.540;9.358;2022-12-07T17:39:56;0.22;;;0.20;;
33786;SDS011;29742;51.540;9.358;2022-12-07T17:44:57;0.65;;;0.30;;
33786;SDS011;29742;51.540;9.358;2022-12-07T17:49:57;0.10;;;0.08;;
33786;SDS011;29742;51.540;9.358;2022-12-07T17:54:58;0.20;;;0.20;;
33786;SDS011;29742;51.540;9.358;2022-12-07T17:59:58;0.47;;;0.22;;
33786;SDS011;29742;51.540;9.358;2022-12-07T18:04:58;0.35;;;0.20;;
33786;SDS011;29742;51.540;9.358;2022-12-07T18:09:59;0.10;;;0.10;;
33786;SDS011;29742;51.540;9.358;2022-12-07T18:14:59;0.30;;;0.10;;
33786;SDS011;29742;51.540;9.358;2022-12-07T18:20:00;0.90;;;0.22;;
33786;SDS011;29742;51.540;9.358;2022-12-07T18:25:00;0.22;;;0.20;;
33786;SDS011;29742;51.540;9.358;2022-12-07T18:30:00;0.28;;;0.15;;
33786;SDS011;29742;51.540;9.358;2022-12-07T18:35:01;0.25;;;0.20;;
33786;SDS011;29742;51.540;9.358;2022-12-07T18:40:01;0.15;;;0.15;;
33786;SDS011;29742;51.540;9.358;2022-12-07T18:45:01;0.20;;;0.10;;
33786;SDS011;29742;51.540;9.358;2022-12-07T18:50:02;0.10;;;0.10;;
33786;SDS011;29742;51.540;9.358;2022-12-07T18:55:03;0.40;;;0.20;;
33786;SDS011;29742;51.540;9.358;2022-12-07T19:00:03;0.30;;;0.20;;
33786;SDS011;29742;51.540;9.358;2022-12-07T19:05:04;0.40;;;0.40;;
33786;SDS011;29742;51.540;9.358;2022-12-07T19:10:05;0.60;;;0.40;;
33786;SDS011;29742;51.540;9.358;2022-12-07T19:15:07;0.20;;;0.20;;
33786;SDS011;29742;51.540;9.358;2022-12-07T19:20:10;0.65;;;0.40;;
33786;SDS011;29742;51.540;9.358;2022-12-07T19:25:12;0.10;;;0.10;;
33786;SDS011;29742;51.540;9.358;2022-12-07T19:30:12;0.30;;;0.20;;
33786;SDS011;29742;51.540;9.358;2022-12-07T19:35:13;1.13;;;0.10;;
33786;SDS011;29742;51.540;9.358;2022-12-07T19:40:13;0.37;;;0.20;;
33786;SDS011;29742;51.540;9.358;2022-12-07T19:45:13;0.10;;;0.10;;
33786;SDS011;29742;51.540;9.358;2022-12-07T19:50:14;0.30;;;0.30;;
33786;SDS011;29742;51.540;9.358;2022-12-07T19:55:14;0.20;;;0.20;;
33786;SDS011;29742;51.540;9.358;2022-12-07T20:00:14;0.60;;;0.30;;
33786;SDS011;29742;51.540;9.358;2022-12-07T20:05:15;0.17;;;0.17;;
33786;SDS011;29742;51.540;9.358;2022-12-07T20:10:15;0.10;;;0.10;;
33786;SDS011;29742;51.540;9.358;2022-12-07T20:15:16;0.50;;;0.30;;
33786;SDS011;29742;51.540;9.358;2022-12-07T20:20:16;0.20;;;0.10;;
33786;SDS011;29742;51.540;9.358;2022-12-07T20:25:16;0.50;;;0.27;;
33786;SDS011;29742;51.540;9.358;2022-12-07T20:30:18;0.52;;;0.30;;
33786;SDS011;29742;51.540;9.358;2022-12-07T20:35:19;1.02;;;0.43;;
33786;SDS011;29742;51.540;9.358;2022-12-07T20:40:19;0.90;;;0.00;;
33786;SDS011;29742;51.540;9.358;2022-12-07T20:45:19;0.20;;;0.20;;
33786;SDS011;29742;51.540;9.358;2022-12-07T20:50:20;0.30;;;0.10;;
33786;SDS011;29742;51.540;9.358;2022-12-07T20:55:20;0.77;;;0.20;;
33786;SDS011;29742;51.540;9.358;2022-12-07T21:00:21;0.70;;;0.30;;
33786;SDS011;29742;51.540;9.358;2022-12-07T21:05:21;0.63;;;0.50;;
33786;SDS011;29742;51.540;9.358;2022-12-07T21:10:22;0.35;;;0.30;;
33786;SDS011;29742;51.540;9.358;2022-12-07T21:15:23;0.37;;;0.27;;
33786;SDS011;29742;51.540;9.358;2022-12-07T21:20:23;0.28;;;0.15;;
33786;SDS011;29742;51.540;9.358;2022-12-07T21:25:23;0.30;;;0.10;;
33786;SDS011;29742;51.540;9.358;2022-12-07T21:30:24;0.60;;;0.40;;
33786;SDS011;29742;51.540;9.358;2022-12-07T21:35:24;0.10;;;0.10;;
33786;SDS011;29742;51.540;9.358;2022-12-07T21:40:24;0.10;;;0.10;;
33786;SDS011;29742;51.540;9.358;2022-12-07T21:45:25;0.40;;;0.22;;
33786;SDS011;29742;51.540;9.358;2022-12-07T21:50:25;0.57;;;0.27;;
33786;SDS011;29742;51.540;9.358;2022-12-07T21:55:25;0.43;;;0.35;;
33786;SDS011;29742;51.540;9.358;2022-12-07T22:00:26;0.70;;;0.20;;
33786;SDS011;29742;51.540;9.358;2022-12-07T22:05:27;0.75;;;0.40;;
33786;SDS011;29742;51.540;9.358;2022-12-07T22:10:27;0.20;;;0.20;;
33786;SDS011;29742;51.540;9.358;2022-12-07T22:15:28;0.60;;;0.38;;
33786;SDS011;29742;51.540;9.358;2022-12-07T22:20:28;0.75;;;0.35;;
33786;SDS011;29742;51.540;9.358;2022-12-07T22:25:29;0.20;;;0.20;;
33786;SDS011;29742;51.540;9.358;2022-12-07T22:30:29;0.37;;;0.20;;
33786;SDS011;29742;51.540;9.358;2022-12-07T22:35:29;2.08;;;0.30;;
33786;SDS011;29742;51.540;9.358;2022-12-07T22:40:30;0.10;;;0.10;;
33786;SDS011;29742;51.540;9.358;2022-12-07T22:45:30;0.20;;;0.20;;
33786;SDS011;29742;51.540;9.358;2022-12-07T22:50:33;0.40;;;0.25;;
33786;SDS011;29742;51.540;9.358;2022-12-07T22:55:37;0.30;;;0.20;;
33786;SDS011;29742;51.540;9.358;2022-12-07T23:00:38;0.13;;;0.13;;
33786;SDS011;29742;51.540;9.358;2022-12-07T23:05:45;0.28;;;0.22;;
33786;SDS011;29742;51.540;9.358;2022-12-07T23:10:47;0.50;;;0.28;;
33786;SDS011;29742;51.540;9.358;2022-12-07T23:15:47;0.20;;;0.10;;
33786;SDS011;29742;51.540;9.358;2022-12-07T23:20:48;0.38;;;0.25;;
33786;SDS011;29742;51.540;9.358;2022-12-07T23:25:48;0.50;;;0.40;;
33786;SDS011;29742;51.540;9.358;2022-12-07T23:30:49;0.28;;;0.20;;
33786;SDS011;29742;51.540;9.358;2022-12-07T23:35:49;0.93;;;0.30;;
33786;SDS011;29742;51.540;9.358;2022-12-07T23:40:50;0.75;;;0.30;;
33786;SDS011;29742;51.540;9.358;2022-12-07T23:45:50;0.40;;;0.20;;
33786;SDS011;29742;51.540;9.358;2022-12-07T23:50:50;0.20;;;0.20;;
33786;SDS011;29742;51.540;9.358;2022-12-07T23:55:51;0.30;;;0.20;;
